sensor_id;sensor_type;location;lat;lon;timestamp;temperature;humidity
1075;DHT22;526;51.392;12.448;2022-08-21T00:00:38;18.90;97.30
1075;DHT22;526;51.392;12.448;2022-08-21T00:03:06;18.90;97.30
1075;DHT22;526;51.392;12.448;2022-08-21T00:05:35;18.90;97.30
1075;DHT22;526;51.392;12.448;2022-08-21T00:08:01;18.90;97.30
1075;DHT22;526;51.392;12.448;2022-08-21T00:10:27;18.90;97.30
1075;DHT22;526;51.392;12.448;2022-08-21T00:12:53;18.90;97.30
1075;DHT22;526;51.392;12.448;2022-08-21T00:15:27;18.80;97.30
1075;DHT22;526;51.392;12.448;2022-08-21T00:17:54;18.80;97.30
1075;DHT22;526;51.392;12.448;2022-08-21T00:20:20;18.80;97.30
1075;DHT22;526;51.392;12.448;2022-08-21T00:22:46;18.80;97.30
1075;DHT22;526;51.392;12.448;2022-08-21T00:25:13;18.80;97.30
1075;DHT22;526;51.392;12.448;2022-08-21T00:27:39;18.80;97.30
1075;DHT22;526;51.392;12.448;2022-08-21T00:30:06;18.70;97.30
1075;DHT22;526;51.392;12.448;2022-08-21T00:32:32;18.70;97.30
1075;DHT22;526;51.392;12.448;2022-08-21T00:34:58;18.70;97.30
1075;DHT22;526;51.392;12.448;2022-08-21T00:37:24;18.70;97.30
1075;DHT22;526;51.392;12.448;2022-08-21T00:39:49;18.70;97.30
1075;DHT22;526;51.392;12.448;2022-08-21T00:42:15;18.70;97.30
1075;DHT22;526;51.392;12.448;2022-08-21T00:44:46;18.60;97.30
1075;DHT22;526;51.392;12.448;2022-08-21T00:47:12;18.70;97.30
1075;DHT22;526;51.392;12.448;2022-08-21T00:49:39;18.60;97.30
1075;DHT22;526;51.392;12.448;2022-08-21T00:52:07;18.60;97.30
1075;DHT22;526;51.392;12.448;2022-08-21T00:54:34;18.60;97.30
1075;DHT22;526;51.392;12.448;2022-08-21T00:57:03;18.60;97.30
1075;DHT22;526;51.392;12.448;2022-08-21T00:59:33;18.60;97.30
1075;DHT22;526;51.392;12.448;2022-08-21T01:02:00;18.60;97.30
1075;DHT22;526;51.392;12.448;2022-08-21T01:04:26;18.60;97.30
1075;DHT22;526;51.392;12.448;2022-08-21T01:06:51;18.60;97.30
1075;DHT22;526;51.392;12.448;2022-08-21T01:09:17;18.60;97.30
1075;DHT22;526;51.392;12.448;2022-08-21T01:11:45;18.60;97.30
1075;DHT22;526;51.392;12.448;2022-08-21T01:14:12;18.60;97.30
1075;DHT22;526;51.392;12.448;2022-08-21T01:16:39;18.60;97.30
1075;DHT22;526;51.392;12.448;2022-08-21T01:19:07;18.60;97.30
1075;DHT22;526;51.392;12.448;2022-08-21T01:21:33;18.60;97.30
1075;DHT22;526;51.392;12.448;2022-08-21T01:24:09;18.50;97.30
1075;DHT22;526;51.392;12.448;2022-08-21T01:26:35;18.50;97.30
1075;DHT22;526;51.392;12.448;2022-08-21T01:29:51;18.50;97.30
1075;DHT22;526;51.392;12.448;2022-08-21T01:31:59;18.50;97.30
1075;DHT22;526;51.392;12.448;2022-08-21T01:34:25;18.50;97.30
1075;DHT22;526;51.392;12.448;2022-08-21T01:36:50;18.50;97.30
1075;DHT22;526;51.392;12.448;2022-08-21T01:39:16;18.50;97.30
1075;DHT22;526;51.392;12.448;2022-08-21T01:41:42;18.50;97.30
1075;DHT22;526;51.392;12.448;2022-08-21T01:44:07;18.50;97.30
1075;DHT22;526;51.392;12.448;2022-08-21T01:46:33;18.50;97.30
1075;DHT22;526;51.392;12.448;2022-08-21T01:48:59;18.50;97.30
1075;DHT22;526;51.392;12.448;2022-08-21T01:51:25;18.50;97.30
1075;DHT22;526;51.392;12.448;2022-08-21T01:53:50;18.50;97.30
1075;DHT22;526;51.392;12.448;2022-08-21T01:56:16;18.40;97.30
1075;DHT22;526;51.392;12.448;2022-08-21T01:58:45;18.50;97.30
1075;DHT22;526;51.392;12.448;2022-08-21T02:01:11;18.50;97.30
1075;DHT22;526;51.392;12.448;2022-08-21T02:03:37;18.50;97.30
1075;DHT22;526;51.392;12.448;2022-08-21T02:06:04;18.50;97.30
1075;DHT22;526;51.392;12.448;2022-08-21T02:08:30;18.40;97.30
1075;DHT22;526;51.392;12.448;2022-08-21T02:10:56;18.50;97.30
1075;DHT22;526;51.392;12.448;2022-08-21T02:13:21;18.50;97.30
1075;DHT22;526;51.392;12.448;2022-08-21T02:15:48;18.40;97.30
1075;DHT22;526;51.392;12.448;2022-08-21T02:18:13;18.40;97.30
1075;DHT22;526;51.392;12.448;2022-08-21T02:20:43;18.40;97.30
1075;DHT22;526;51.392;12.448;2022-08-21T02:23:10;18.40;97.30
1075;DHT22;526;51.392;12.448;2022-08-21T02:25:37;18.40;97.30
1075;DHT22;526;51.392;12.448;2022-08-21T02:28:09;18.30;97.30
1075;DHT22;526;51.392;12.448;2022-08-21T02:30:40;18.30;97.30
1075;DHT22;526;51.392;12.448;2022-08-21T02:33:07;18.30;97.30
1075;DHT22;526;51.392;12.448;2022-08-21T02:35:33;18.30;97.30
1075;DHT22;526;51.392;12.448;2022-08-21T02:38:07;18.30;97.30
1075;DHT22;526;51.392;12.448;2022-08-21T02:40:37;18.30;97.30
1075;DHT22;526;51.392;12.448;2022-08-21T02:43:03;18.20;97.30
1075;DHT22;526;51.392;12.448;2022-08-21T02:45:30;18.20;97.30
1075;DHT22;526;51.392;12.448;2022-08-21T02:48:04;18.20;97.30
1075;DHT22;526;51.392;12.448;2022-08-21T02:50:33;18.20;97.30
1075;DHT22;526;51.392;12.448;2022-08-21T02:52:59;18.20;97.30
1075;DHT22;526;51.392;12.448;2022-08-21T02:55:27;18.20;97.30
1075;DHT22;526;51.392;12.448;2022-08-21T02:57:54;18.20;97.30
1075;DHT22;526;51.392;12.448;2022-08-21T03:00:22;18.20;97.30
1075;DHT22;526;51.392;12.448;2022-08-21T03:02:48;18.10;97.30
1075;DHT22;526;51.392;12.448;2022-08-21T03:05:15;18.10;97.30
1075;DHT22;526;51.392;12.448;2022-08-21T03:07:42;18.10;97.30
1075;DHT22;526;51.392;12.448;2022-08-21T03:10:08;18.10;97.30
1075;DHT22;526;51.392;12.448;2022-08-21T03:12:35;18.00;97.30
1075;DHT22;526;51.392;12.448;2022-08-21T03:15:05;18.00;97.30
1075;DHT22;526;51.392;12.448;2022-08-21T03:17:32;18.00;97.30
1075;DHT22;526;51.392;12.448;2022-08-21T03:19:57;18.00;97.30
1075;DHT22;526;51.392;12.448;2022-08-21T03:22:23;18.00;97.30
1075;DHT22;526;51.392;12.448;2022-08-21T03:24:48;18.00;97.30
1075;DHT22;526;51.392;12.448;2022-08-21T03:27:15;18.00;97.30
1075;DHT22;526;51.392;12.448;2022-08-21T03:29:40;17.90;97.30
1075;DHT22;526;51.392;12.448;2022-08-21T03:32:06;17.90;97.30
1075;DHT22;526;51.392;12.448;2022-08-21T03:34:35;17.90;97.30
1075;DHT22;526;51.392;12.448;2022-08-21T03:37:01;17.90;97.30
1075;DHT22;526;51.392;12.448;2022-08-21T03:39:27;17.80;97.30
1075;DHT22;526;51.392;12.448;2022-08-21T03:41:52;17.80;97.30
1075;DHT22;526;51.392;12.448;2022-08-21T03:44:19;17.80;97.30
1075;DHT22;526;51.392;12.448;2022-08-21T03:46:45;17.90;97.30
1075;DHT22;526;51.392;12.448;2022-08-21T03:49:10;17.80;97.30
1075;DHT22;526;51.392;12.448;2022-08-21T03:51:36;17.80;97.30
1075;DHT22;526;51.392;12.448;2022-08-21T03:54:02;17.90;97.30
1075;DHT22;526;51.392;12.448;2022-08-21T03:56:28;17.80;97.30
1075;DHT22;526;51.392;12.448;2022-08-21T03:58:54;17.80;97.30
1075;DHT22;526;51.392;12.448;2022-08-21T04:01:19;17.80;97.30
1075;DHT22;526;51.392;12.448;2022-08-21T04:03:45;17.80;97.30
1075;DHT22;526;51.392;12.448;2022-08-21T04:06:10;17.80;97.30
1075;DHT22;526;51.392;12.448;2022-08-21T04:08:36;17.80;97.30
1075;DHT22;526;51.392;12.448;2022-08-21T04:11:02;17.80;97.30
1075;DHT22;526;51.392;12.448;2022-08-21T04:13:27;17.80;97.30
1075;DHT22;526;51.392;12.448;2022-08-21T04:15:54;17.70;97.30
1075;DHT22;526;51.392;12.448;2022-08-21T04:18:20;17.70;97.30
1075;DHT22;526;51.392;12.448;2022-08-21T04:20:49;17.70;97.30
1075;DHT22;526;51.392;12.448;2022-08-21T04:23:15;17.70;97.30
1075;DHT22;526;51.392;12.448;2022-08-21T04:25:40;17.70;97.30
1075;DHT22;526;51.392;12.448;2022-08-21T04:28:06;17.70;97.30
1075;DHT22;526;51.392;12.448;2022-08-21T04:30:33;17.70;97.30
1075;DHT22;526;51.392;12.448;2022-08-21T04:32:59;17.70;97.30
1075;DHT22;526;51.392;12.448;2022-08-21T04:35:27;17.70;97.30
1075;DHT22;526;51.392;12.448;2022-08-21T04:37:53;17.70;97.30
1075;DHT22;526;51.392;12.448;2022-08-21T04:40:20;17.70;97.30
1075;DHT22;526;51.392;12.448;2022-08-21T04:42:52;17.80;97.30
1075;DHT22;526;51.392;12.448;2022-08-21T04:45:25;17.80;97.30
1075;DHT22;526;51.392;12.448;2022-08-21T04:47:53;17.80;97.30
1075;DHT22;526;51.392;12.448;2022-08-21T04:51:07;17.80;97.30
1075;DHT22;526;51.392;12.448;2022-08-21T04:53:11;17.80;97.30
1075;DHT22;526;51.392;12.448;2022-08-21T04:55:38;17.70;97.30
1075;DHT22;526;51.392;12.448;2022-08-21T04:58:06;17.80;97.30
1075;DHT22;526;51.392;12.448;2022-08-21T05:00:36;17.80;97.30
1075;DHT22;526;51.392;12.448;2022-08-21T05:03:03;17.80;97.30
1075;DHT22;526;51.392;12.448;2022-08-21T05:05:30;17.80;97.30
1075;DHT22;526;51.392;12.448;2022-08-21T05:07:59;17.80;97.30
1075;DHT22;526;51.392;12.448;2022-08-21T05:10:26;17.80;97.30
1075;DHT22;526;51.392;12.448;2022-08-21T05:12:52;17.80;97.30
1075;DHT22;526;51.392;12.448;2022-08-21T05:15:18;17.80;97.30
1075;DHT22;526;51.392;12.448;2022-08-21T05:17:43;17.80;97.30
1075;DHT22;526;51.392;12.448;2022-08-21T05:20:10;17.80;97.30
1075;DHT22;526;51.392;12.448;2022-08-21T05:22:36;17.80;97.30
1075;DHT22;526;51.392;12.448;2022-08-21T05:25:03;17.80;97.30
1075;DHT22;526;51.392;12.448;2022-08-21T05:27:29;17.70;97.30
1075;DHT22;526;51.392;12.448;2022-08-21T05:29:56;17.70;97.30
1075;DHT22;526;51.392;12.448;2022-08-21T05:32:22;17.80;97.30
1075;DHT22;526;51.392;12.448;2022-08-21T05:34:48;17.80;97.30
1075;DHT22;526;51.392;12.448;2022-08-21T05:37:14;17.80;97.30
1075;DHT22;526;51.392;12.448;2022-08-21T05:39:40;17.80;97.30
1075;DHT22;526;51.392;12.448;2022-08-21T05:42:06;17.80;97.30
1075;DHT22;526;51.392;12.448;2022-08-21T05:44:31;17.80;97.30
1075;DHT22;526;51.392;12.448;2022-08-21T05:47:05;17.80;97.30
1075;DHT22;526;51.392;12.448;2022-08-21T05:49:31;17.80;97.30
1075;DHT22;526;51.392;12.448;2022-08-21T05:51:57;17.80;97.30
1075;DHT22;526;51.392;12.448;2022-08-21T05:54:24;17.80;97.30
1075;DHT22;526;51.392;12.448;2022-08-21T05:56:49;17.90;97.30
1075;DHT22;526;51.392;12.448;2022-08-21T05:59:15;17.90;97.30
1075;DHT22;526;51.392;12.448;2022-08-21T06:01:41;17.90;97.30
1075;DHT22;526;51.392;12.448;2022-08-21T06:04:06;17.90;97.30
1075;DHT22;526;51.392;12.448;2022-08-21T06:06:33;17.90;97.30
1075;DHT22;526;51.392;12.448;2022-08-21T06:08:59;17.90;97.30
1075;DHT22;526;51.392;12.448;2022-08-21T06:11:24;18.00;97.30
1075;DHT22;526;51.392;12.448;2022-08-21T06:13:50;18.00;97.30
1075;DHT22;526;51.392;12.448;2022-08-21T06:16:16;18.00;97.30
1075;DHT22;526;51.392;12.448;2022-08-21T06:18:43;18.00;97.30
1075;DHT22;526;51.392;12.448;2022-08-21T06:21:09;18.00;97.30
1075;DHT22;526;51.392;12.448;2022-08-21T06:23:37;18.00;97.30
1075;DHT22;526;51.392;12.448;2022-08-21T06:26:04;18.00;97.30
1075;DHT22;526;51.392;12.448;2022-08-21T06:28:31;18.00;97.30
1075;DHT22;526;51.392;12.448;2022-08-21T06:30:57;18.10;97.30
1075;DHT22;526;51.392;12.448;2022-08-21T06:33:23;18.10;97.30
1075;DHT22;526;51.392;12.448;2022-08-21T06:35:49;18.20;97.30
1075;DHT22;526;51.392;12.448;2022-08-21T06:38:14;18.20;97.30
1075;DHT22;526;51.392;12.448;2022-08-21T06:40:41;18.20;97.30
1075;DHT22;526;51.392;12.448;2022-08-21T06:43:13;18.30;97.30
1075;DHT22;526;51.392;12.448;2022-08-21T06:45:39;18.30;97.30
1075;DHT22;526;51.392;12.448;2022-08-21T06:48:05;18.30;97.30
1075;DHT22;526;51.392;12.448;2022-08-21T06:50:33;18.30;97.30
1075;DHT22;526;51.392;12.448;2022-08-21T06:53:12;18.30;97.30
1075;DHT22;526;51.392;12.448;2022-08-21T06:55:38;18.30;97.30
1075;DHT22;526;51.392;12.448;2022-08-21T06:58:05;18.40;97.30
1075;DHT22;526;51.392;12.448;2022-08-21T07:00:32;18.40;97.30
1075;DHT22;526;51.392;12.448;2022-08-21T07:02:58;18.40;97.30
1075;DHT22;526;51.392;12.448;2022-08-21T07:05:28;18.40;97.30
1075;DHT22;526;51.392;12.448;2022-08-21T07:07:55;18.40;97.30
1075;DHT22;526;51.392;12.448;2022-08-21T07:10:20;18.40;97.30
1075;DHT22;526;51.392;12.448;2022-08-21T07:12:46;18.40;97.30
1075;DHT22;526;51.392;12.448;2022-08-21T07:15:11;18.50;97.30
1075;DHT22;526;51.392;12.448;2022-08-21T07:17:37;18.50;97.30
1075;DHT22;526;51.392;12.448;2022-08-21T07:20:04;18.60;97.30
1075;DHT22;526;51.392;12.448;2022-08-21T07:22:31;18.70;97.30
1075;DHT22;526;51.392;12.448;2022-08-21T07:24:56;18.70;97.30
1075;DHT22;526;51.392;12.448;2022-08-21T07:27:22;18.70;97.30
1075;DHT22;526;51.392;12.448;2022-08-21T07:29:48;18.80;97.30
1075;DHT22;526;51.392;12.448;2022-08-21T07:32:14;18.80;97.30
1075;DHT22;526;51.392;12.448;2022-08-21T07:34:40;18.90;97.30
1075;DHT22;526;51.392;12.448;2022-08-21T07:37:06;19.00;97.30
1075;DHT22;526;51.392;12.448;2022-08-21T07:39:32;19.00;97.30
1075;DHT22;526;51.392;12.448;2022-08-21T07:41:57;19.00;97.30
1075;DHT22;526;51.392;12.448;2022-08-21T07:44:23;19.10;97.30
1075;DHT22;526;51.392;12.448;2022-08-21T07:46:48;19.10;97.30
1075;DHT22;526;51.392;12.448;2022-08-21T07:52:03;19.10;97.30
1075;DHT22;526;51.392;12.448;2022-08-21T07:54:29;19.20;97.30
1075;DHT22;526;51.392;12.448;2022-08-21T07:56:54;19.20;97.30
1075;DHT22;526;51.392;12.448;2022-08-21T07:59:20;19.30;97.30
1075;DHT22;526;51.392;12.448;2022-08-21T08:01:46;19.30;97.30
1075;DHT22;526;51.392;12.448;2022-08-21T08:04:12;19.30;97.30
1075;DHT22;526;51.392;12.448;2022-08-21T08:06:37;19.30;97.30
1075;DHT22;526;51.392;12.448;2022-08-21T08:09:03;19.40;97.30
1075;DHT22;526;51.392;12.448;2022-08-21T08:11:30;19.40;97.30
1075;DHT22;526;51.392;12.448;2022-08-21T08:13:56;19.40;97.30
1075;DHT22;526;51.392;12.448;2022-08-21T08:16:23;19.40;97.30
1075;DHT22;526;51.392;12.448;2022-08-21T08:18:49;19.50;97.30
1075;DHT22;526;51.392;12.448;2022-08-21T08:21:15;19.50;97.30
1075;DHT22;526;51.392;12.448;2022-08-21T08:23:41;19.60;97.30
1075;DHT22;526;51.392;12.448;2022-08-21T08:26:07;19.60;97.30
1075;DHT22;526;51.392;12.448;2022-08-21T08:28:33;19.60;97.30
1075;DHT22;526;51.392;12.448;2022-08-21T08:31:00;19.70;97.30
1075;DHT22;526;51.392;12.448;2022-08-21T08:33:26;19.70;97.30
1075;DHT22;526;51.392;12.448;2022-08-21T08:35:53;19.80;97.30
1075;DHT22;526;51.392;12.448;2022-08-21T08:38:20;19.80;97.30
1075;DHT22;526;51.392;12.448;2022-08-21T08:40:55;19.80;97.30
1075;DHT22;526;51.392;12.448;2022-08-21T08:43:21;19.90;97.30
1075;DHT22;526;51.392;12.448;2022-08-21T08:45:50;19.90;97.30
1075;DHT22;526;51.392;12.448;2022-08-21T08:48:40;20.00;97.30
1075;DHT22;526;51.392;12.448;2022-08-21T08:51:12;20.00;97.30
1075;DHT22;526;51.392;12.448;2022-08-21T08:53:59;20.10;97.30
1075;DHT22;526;51.392;12.448;2022-08-21T08:56:29;20.10;97.30
1075;DHT22;526;51.392;12.448;2022-08-21T08:59:02;20.10;97.10
1075;DHT22;526;51.392;12.448;2022-08-21T09:01:32;20.20;96.70
1075;DHT22;526;51.392;12.448;2022-08-21T09:03:58;20.20;96.00
1075;DHT22;526;51.392;12.448;2022-08-21T09:12:06;20.50;95.90
1075;DHT22;526;51.392;12.448;2022-08-21T09:25:20;20.90;96.10
1075;DHT22;526;51.392;12.448;2022-08-21T09:27:47;21.00;95.30
1075;DHT22;526;51.392;12.448;2022-08-21T09:30:14;21.00;95.40
1075;DHT22;526;51.392;12.448;2022-08-21T09:32:40;21.10;93.90
1075;DHT22;526;51.392;12.448;2022-08-21T09:35:13;21.10;94.10
1075;DHT22;526;51.392;12.448;2022-08-21T09:37:54;21.10;94.40
1075;DHT22;526;51.392;12.448;2022-08-21T09:40:40;21.10;94.60
1075;DHT22;526;51.392;12.448;2022-08-21T09:43:19;21.10;95.40
1075;DHT22;526;51.392;12.448;2022-08-21T09:45:47;21.20;96.20
1075;DHT22;526;51.392;12.448;2022-08-21T09:48:24;21.30;95.50
1075;DHT22;526;51.392;12.448;2022-08-21T09:50:52;21.30;94.10
1075;DHT22;526;51.392;12.448;2022-08-21T09:53:24;21.30;94.70
1075;DHT22;526;51.392;12.448;2022-08-21T09:55:54;21.40;93.30
1075;DHT22;526;51.392;12.448;2022-08-21T09:58:40;21.50;93.90
1075;DHT22;526;51.392;12.448;2022-08-21T10:01:11;21.50;94.10
1075;DHT22;526;51.392;12.448;2022-08-21T10:03:37;21.60;94.30
1075;DHT22;526;51.392;12.448;2022-08-21T10:06:05;21.70;94.40
1075;DHT22;526;51.392;12.448;2022-08-21T10:08:35;21.70;94.10
1075;DHT22;526;51.392;12.448;2022-08-21T10:11:14;21.70;93.90
1075;DHT22;526;51.392;12.448;2022-08-21T10:14:19;21.70;93.90
1075;DHT22;526;51.392;12.448;2022-08-21T10:17:03;21.80;94.40
1075;DHT22;526;51.392;12.448;2022-08-21T10:19:48;21.90;94.90
1075;DHT22;526;51.392;12.448;2022-08-21T10:22:32;22.00;93.00
1075;DHT22;526;51.392;12.448;2022-08-21T10:25:21;22.00;93.20
1075;DHT22;526;51.392;12.448;2022-08-21T10:28:04;22.10;93.40
1075;DHT22;526;51.392;12.448;2022-08-21T10:38:38;22.40;91.90
1075;DHT22;526;51.392;12.448;2022-08-21T10:57:33;22.60;88.70
1075;DHT22;526;51.392;12.448;2022-08-21T11:00:14;22.60;89.30
1075;DHT22;526;51.392;12.448;2022-08-21T11:05:54;22.70;89.20
1075;DHT22;526;51.392;12.448;2022-08-21T11:08:31;22.80;88.50
1075;DHT22;526;51.392;12.448;2022-08-21T11:11:22;22.90;88.20
1075;DHT22;526;51.392;12.448;2022-08-21T11:14:09;23.00;88.90
1075;DHT22;526;51.392;12.448;2022-08-21T11:16:53;23.20;89.70
1075;DHT22;526;51.392;12.448;2022-08-21T11:19:30;23.30;88.10
1075;DHT22;526;51.392;12.448;2022-08-21T11:22:26;23.30;87.90
1075;DHT22;526;51.392;12.448;2022-08-21T11:25:00;23.40;86.30
1075;DHT22;526;51.392;12.448;2022-08-21T11:27:44;23.50;87.20
1075;DHT22;526;51.392;12.448;2022-08-21T11:30:11;23.60;86.90
1075;DHT22;526;51.392;12.448;2022-08-21T11:35:33;23.70;87.20
1075;DHT22;526;51.392;12.448;2022-08-21T11:40:51;23.90;88.90
1075;DHT22;526;51.392;12.448;2022-08-21T11:48:59;24.10;85.40
1075;DHT22;526;51.392;12.448;2022-08-21T11:51:36;24.10;85.30
1075;DHT22;526;51.392;12.448;2022-08-21T11:54:27;24.20;85.60
1075;DHT22;526;51.392;12.448;2022-08-21T11:56:59;24.20;83.50
1075;DHT22;526;51.392;12.448;2022-08-21T11:59:40;24.20;85.10
1075;DHT22;526;51.392;12.448;2022-08-21T12:02:15;24.30;85.70
1075;DHT22;526;51.392;12.448;2022-08-21T12:04:46;24.30;84.50
1075;DHT22;526;51.392;12.448;2022-08-21T12:07:16;24.30;84.60
1075;DHT22;526;51.392;12.448;2022-08-21T12:09:53;24.30;84.40
1075;DHT22;526;51.392;12.448;2022-08-21T12:12:29;24.40;84.00
1075;DHT22;526;51.392;12.448;2022-08-21T12:15:23;24.40;82.60
1075;DHT22;526;51.392;12.448;2022-08-21T12:18:19;24.30;82.30
1075;DHT22;526;51.392;12.448;2022-08-21T12:21:46;24.40;83.90
1075;DHT22;526;51.392;12.448;2022-08-21T12:24:15;24.50;83.40
1075;DHT22;526;51.392;12.448;2022-08-21T12:26:56;24.60;84.10
1075;DHT22;526;51.392;12.448;2022-08-21T12:35:18;24.80;83.70
1075;DHT22;526;51.392;12.448;2022-08-21T12:37:46;25.00;83.40
1075;DHT22;526;51.392;12.448;2022-08-21T12:40:20;25.10;84.10
1075;DHT22;526;51.392;12.448;2022-08-21T12:42:50;25.10;83.30
1075;DHT22;526;51.392;12.448;2022-08-21T12:50:53;25.40;83.10
1075;DHT22;526;51.392;12.448;2022-08-21T12:53:44;25.50;83.10
1075;DHT22;526;51.392;12.448;2022-08-21T12:56:14;25.60;83.90
1075;DHT22;526;51.392;12.448;2022-08-21T12:59:01;25.70;80.90
1075;DHT22;526;51.392;12.448;2022-08-21T13:01:35;25.70;79.40
1075;DHT22;526;51.392;12.448;2022-08-21T13:04:07;25.80;80.60
1075;DHT22;526;51.392;12.448;2022-08-21T13:06:39;25.90;83.00
1075;DHT22;526;51.392;12.448;2022-08-21T13:09:08;26.10;82.60
1075;DHT22;526;51.392;12.448;2022-08-21T13:11:35;26.40;81.20
1075;DHT22;526;51.392;12.448;2022-08-21T13:14:03;26.50;80.70
1075;DHT22;526;51.392;12.448;2022-08-21T13:16:30;26.60;82.00
1075;DHT22;526;51.392;12.448;2022-08-21T13:19:03;26.70;80.30
1075;DHT22;526;51.392;12.448;2022-08-21T13:21:39;26.70;80.30
1075;DHT22;526;51.392;12.448;2022-08-21T13:24:26;26.50;79.60
1075;DHT22;526;51.392;12.448;2022-08-21T13:26:53;26.30;79.90
1075;DHT22;526;51.392;12.448;2022-08-21T13:29:22;25.90;80.20
1075;DHT22;526;51.392;12.448;2022-08-21T13:31:54;25.80;81.00
1075;DHT22;526;51.392;12.448;2022-08-21T13:34:24;25.90;82.40
1075;DHT22;526;51.392;12.448;2022-08-21T13:36:54;26.10;81.70
1075;DHT22;526;51.392;12.448;2022-08-21T13:39:21;26.30;80.40
1075;DHT22;526;51.392;12.448;2022-08-21T13:41:54;26.40;81.70
1075;DHT22;526;51.392;12.448;2022-08-21T13:44:44;26.40;78.20
1075;DHT22;526;51.392;12.448;2022-08-21T13:47:11;26.20;78.00
1075;DHT22;526;51.392;12.448;2022-08-21T13:55:13;26.60;80.00
1075;DHT22;526;51.392;12.448;2022-08-21T13:57:41;26.90;79.90
1075;DHT22;526;51.392;12.448;2022-08-21T14:00:17;27.00;78.50
1075;DHT22;526;51.392;12.448;2022-08-21T14:02:46;27.10;78.20
1075;DHT22;526;51.392;12.448;2022-08-21T14:05:43;27.20;78.90
1075;DHT22;526;51.392;12.448;2022-08-21T14:08:20;27.40;79.10
1075;DHT22;526;51.392;12.448;2022-08-21T14:10:50;27.50;77.00
1075;DHT22;526;51.392;12.448;2022-08-21T14:13:45;27.60;78.70
1075;DHT22;526;51.392;12.448;2022-08-21T14:16:59;27.70;77.10
1075;DHT22;526;51.392;12.448;2022-08-21T14:21:32;27.30;76.60
1075;DHT22;526;51.392;12.448;2022-08-21T14:24:11;27.10;76.90
1075;DHT22;526;51.392;12.448;2022-08-21T14:26:48;27.00;77.70
1075;DHT22;526;51.392;12.448;2022-08-21T14:29:16;27.00;78.00
1075;DHT22;526;51.392;12.448;2022-08-21T14:31:43;27.10;77.90
1075;DHT22;526;51.392;12.448;2022-08-21T14:34:13;27.30;78.30
1075;DHT22;526;51.392;12.448;2022-08-21T14:36:39;27.50;79.90
1075;DHT22;526;51.392;12.448;2022-08-21T14:39:05;27.80;78.30
1075;DHT22;526;51.392;12.448;2022-08-21T14:41:32;27.80;77.40
1075;DHT22;526;51.392;12.448;2022-08-21T14:43:58;28.00;76.90
1075;DHT22;526;51.392;12.448;2022-08-21T14:46:26;27.90;77.50
1075;DHT22;526;51.392;12.448;2022-08-21T14:48:53;27.90;76.90
1075;DHT22;526;51.392;12.448;2022-08-21T14:51:18;27.70;77.00
1075;DHT22;526;51.392;12.448;2022-08-21T14:53:44;27.70;78.10
1075;DHT22;526;51.392;12.448;2022-08-21T14:56:11;27.70;77.70
1075;DHT22;526;51.392;12.448;2022-08-21T14:58:45;27.70;78.10
1075;DHT22;526;51.392;12.448;2022-08-21T15:01:13;27.80;78.40
1075;DHT22;526;51.392;12.448;2022-08-21T15:03:39;28.00;78.50
1075;DHT22;526;51.392;12.448;2022-08-21T15:06:05;28.10;77.90
1075;DHT22;526;51.392;12.448;2022-08-21T15:11:56;28.00;76.20
1075;DHT22;526;51.392;12.448;2022-08-21T15:14:26;28.00;75.60
1075;DHT22;526;51.392;12.448;2022-08-21T15:16:52;27.90;74.60
1075;DHT22;526;51.392;12.448;2022-08-21T15:19:18;27.80;74.80
1075;DHT22;526;51.392;12.448;2022-08-21T15:21:44;27.90;75.70
1075;DHT22;526;51.392;12.448;2022-08-21T15:24:09;28.00;75.60
1075;DHT22;526;51.392;12.448;2022-08-21T15:26:35;28.10;76.30
1075;DHT22;526;51.392;12.448;2022-08-21T15:29:02;28.20;75.30
1075;DHT22;526;51.392;12.448;2022-08-21T15:31:28;28.20;74.90
1075;DHT22;526;51.392;12.448;2022-08-21T15:33:53;28.20;75.80
1075;DHT22;526;51.392;12.448;2022-08-21T15:36:20;28.30;76.60
1075;DHT22;526;51.392;12.448;2022-08-21T15:38:45;28.40;76.10
1075;DHT22;526;51.392;12.448;2022-08-21T15:41:12;28.50;77.00
1075;DHT22;526;51.392;12.448;2022-08-21T15:43:45;28.50;75.40
1075;DHT22;526;51.392;12.448;2022-08-21T15:46:13;28.60;76.00
1075;DHT22;526;51.392;12.448;2022-08-21T15:48:39;28.70;75.40
1075;DHT22;526;51.392;12.448;2022-08-21T15:51:05;28.70;75.60
1075;DHT22;526;51.392;12.448;2022-08-21T15:53:30;28.70;74.40
1075;DHT22;526;51.392;12.448;2022-08-21T15:56:02;28.80;74.90
1075;DHT22;526;51.392;12.448;2022-08-21T15:58:27;28.80;75.10
1075;DHT22;526;51.392;12.448;2022-08-21T16:00:53;28.90;74.40
1075;DHT22;526;51.392;12.448;2022-08-21T16:03:18;29.00;75.20
1075;DHT22;526;51.392;12.448;2022-08-21T16:05:48;29.10;75.40
1075;DHT22;526;51.392;12.448;2022-08-21T16:08:14;29.10;73.40
1075;DHT22;526;51.392;12.448;2022-08-21T16:10:40;29.10;72.90
1075;DHT22;526;51.392;12.448;2022-08-21T16:13:24;29.00;73.70
1075;DHT22;526;51.392;12.448;2022-08-21T16:15:50;28.70;73.30
1075;DHT22;526;51.392;12.448;2022-08-21T16:18:17;28.60;73.70
1075;DHT22;526;51.392;12.448;2022-08-21T16:20:43;28.50;73.30
1075;DHT22;526;51.392;12.448;2022-08-21T16:23:08;28.40;74.60
1075;DHT22;526;51.392;12.448;2022-08-21T16:25:38;28.40;74.20
1075;DHT22;526;51.392;12.448;2022-08-21T16:28:06;28.50;74.30
1075;DHT22;526;51.392;12.448;2022-08-21T16:30:32;28.50;74.40
1075;DHT22;526;51.392;12.448;2022-08-21T16:33:00;28.50;73.90
1075;DHT22;526;51.392;12.448;2022-08-21T16:35:26;28.50;73.10
1075;DHT22;526;51.392;12.448;2022-08-21T16:37:51;28.50;74.00
1075;DHT22;526;51.392;12.448;2022-08-21T16:40:17;28.50;73.90
1075;DHT22;526;51.392;12.448;2022-08-21T16:42:43;28.40;74.50
1075;DHT22;526;51.392;12.448;2022-08-21T16:45:13;28.30;74.50
1075;DHT22;526;51.392;12.448;2022-08-21T16:47:39;28.20;74.80
1075;DHT22;526;51.392;12.448;2022-08-21T16:50:05;28.10;74.60
1075;DHT22;526;51.392;12.448;2022-08-21T16:52:32;28.00;75.90
1075;DHT22;526;51.392;12.448;2022-08-21T16:54:58;27.90;77.00
1075;DHT22;526;51.392;12.448;2022-08-21T16:57:24;27.80;76.70
1075;DHT22;526;51.392;12.448;2022-08-21T16:59:49;27.60;77.30
1075;DHT22;526;51.392;12.448;2022-08-21T17:02:34;27.40;78.80
1075;DHT22;526;51.392;12.448;2022-08-21T17:05:00;27.10;79.40
1075;DHT22;526;51.392;12.448;2022-08-21T17:07:27;26.80;78.20
1075;DHT22;526;51.392;12.448;2022-08-21T17:09:53;26.50;79.90
1075;DHT22;526;51.392;12.448;2022-08-21T17:12:19;26.30;81.00
1075;DHT22;526;51.392;12.448;2022-08-21T17:14:45;26.10;81.40
1075;DHT22;526;51.392;12.448;2022-08-21T17:17:11;25.90;82.70
1075;DHT22;526;51.392;12.448;2022-08-21T17:19:37;25.80;82.20
1075;DHT22;526;51.392;12.448;2022-08-21T17:22:03;25.60;84.60
1075;DHT22;526;51.392;12.448;2022-08-21T17:24:29;25.50;85.70
1075;DHT22;526;51.392;12.448;2022-08-21T17:26:55;25.30;85.50
1075;DHT22;526;51.392;12.448;2022-08-21T17:29:26;25.10;86.20
1075;DHT22;526;51.392;12.448;2022-08-21T17:31:52;25.00;86.80
1075;DHT22;526;51.392;12.448;2022-08-21T17:34:18;24.90;87.10
1075;DHT22;526;51.392;12.448;2022-08-21T17:36:44;24.70;87.20